createdAt,value
2023-05-11T00:00:27.675Z,10.87
2023-05-11T00:01:24.452Z,12.43
2023-05-11T00:02:21.215Z,11.56
2023-05-11T00:03:18.328Z,11.37
2023-05-11T00:04:15.279Z,12.23
2023-05-11T00:05:12.051Z,11.45
2023-05-11T00:06:08.888Z,12.42
2023-05-11T00:07:06.062Z,11.99
2023-05-11T00:08:02.898Z,12.29
2023-05-11T00:08:59.728Z,11.88
2023-05-11T00:09:56.582Z,11.88
2023-05-11T00:10:53.372Z,12.54
2023-05-11T00:11:52.740Z,11.65
2023-05-11T00:12:49.614Z,12.32
2023-05-11T00:13:46.473Z,11.76
2023-05-11T00:14:43.180Z,11.46
2023-05-11T00:15:39.969Z,11.69
2023-05-11T00:16:36.766Z,11.62
2023-05-11T00:17:33.640Z,11.63
2023-05-11T00:18:30.476Z,12.30
2023-05-11T00:19:28.096Z,12.44
2023-05-11T00:20:24.891Z,12.25
2023-05-11T00:21:22.986Z,10.38
2023-05-11T00:22:19.728Z,12.08
2023-05-11T00:23:16.620Z,12.20
2023-05-11T00:24:13.407Z,11.23
2023-05-11T00:25:10.381Z,10.81
2023-05-11T00:26:07.212Z,12.00
2023-05-11T00:27:04.046Z,11.49
2023-05-11T00:28:01.020Z,11.49
2023-05-11T00:28:57.815Z,12.10
2023-05-11T00:29:54.654Z,11.46
2023-05-11T00:30:56.586Z,11.62
2023-05-11T00:31:53.358Z,11.18
2023-05-11T00:32:51.485Z,9.64
2023-05-11T00:33:48.317Z,10.91
2023-05-11T00:34:45.060Z,12.12
2023-05-11T00:35:42.935Z,11.52
2023-05-11T00:36:41.362Z,12.03
2023-05-11T00:37:39.583Z,11.44
2023-05-11T00:38:40.429Z,11.50
2023-05-11T00:39:40.437Z,11.92
2023-05-11T00:40:37.466Z,11.24
2023-05-11T00:41:34.282Z,11.94
2023-05-11T00:42:31.351Z,11.68
2023-05-11T00:43:28.154Z,11.09
2023-05-11T00:44:24.885Z,11.73
2023-05-11T00:45:21.817Z,11.51
2023-05-11T00:46:19.017Z,11.75
2023-05-11T00:47:16.090Z,11.05
2023-05-11T00:48:12.997Z,10.73
2023-05-11T00:49:10.186Z,10.55
2023-05-11T00:50:08.409Z,11.80
2023-05-11T00:51:06.926Z,10.88
2023-05-11T00:52:04.331Z,11.10
2023-05-11T00:53:01.455Z,9.53
2023-05-11T00:53:59.504Z,11.73
2023-05-11T00:54:56.307Z,11.35
2023-05-11T00:55:54.142Z,10.83
2023-05-11T00:56:51.004Z,10.99
2023-05-11T00:57:48.162Z,11.93
2023-05-11T00:58:44.948Z,11.14
2023-05-11T00:59:41.812Z,10.80
2023-05-11T01:00:39.106Z,11.66
2023-05-11T01:01:38.438Z,11.40
2023-05-11T01:02:35.581Z,11.61
2023-05-11T01:03:34.348Z,11.79
2023-05-11T01:04:32.946Z,11.35
2023-05-11T01:05:43.224Z,11.74
2023-05-11T01:06:56.058Z,11.02
2023-05-11T01:08:06.784Z,10.78
2023-05-11T01:09:09.702Z,11.11
2023-05-11T01:10:38.116Z,11.43
2023-05-11T01:11:42.035Z,11.65
2023-05-11T01:13:02.906Z,11.67
2023-05-11T01:14:28.931Z,11.68
2023-05-11T01:15:37.021Z,11.72
2023-05-11T01:16:40.414Z,10.78
2023-05-11T01:17:53.974Z,10.62
2023-05-11T01:19:02.154Z,11.58
2023-05-11T01:20:06.421Z,11.75
2023-05-11T01:21:04.547Z,11.45
2023-05-11T01:22:15.943Z,8.86
2023-05-11T01:23:34.304Z,11.05
2023-05-11T01:25:08.492Z,11.89
2023-05-11T01:26:08.345Z,11.85
2023-05-11T01:27:32.390Z,11.69
2023-05-11T01:29:06.442Z,11.80
2023-05-11T01:30:41.777Z,11.67
2023-05-11T01:31:46.805Z,11.05
2023-05-11T01:32:46.255Z,10.36
2023-05-11T01:33:58.547Z,10.27
2023-05-11T01:35:23.335Z,10.61
2023-05-11T01:36:25.379Z,10.67
2023-05-11T01:37:24.256Z,10.51
2023-05-11T01:38:26.536Z,10.66
2023-05-11T01:39:32.815Z,11.12
2023-05-11T01:40:34.089Z,11.08
2023-05-11T01:41:35.009Z,10.79
2023-05-11T01:42:48.679Z,11.66
2023-05-11T01:43:53.208Z,11.08
2023-05-11T01:44:55.332Z,10.33
2023-05-11T01:45:59.159Z,11.58
2023-05-11T01:47:00.733Z,10.90
2023-05-11T01:47:59.388Z,10.66
2023-05-11T01:48:59.534Z,10.58
2023-05-11T01:50:00.837Z,10.47
2023-05-11T01:51:03.152Z,11.65
2023-05-11T01:52:03.029Z,11.75
2023-05-11T01:53:04.285Z,11.49
2023-05-11T01:54:02.478Z,11.24
2023-05-11T01:55:22.449Z,10.61
2023-05-11T01:56:22.776Z,11.38
2023-05-11T01:57:21.736Z,10.50
2023-05-11T01:58:21.851Z,10.08
2023-05-11T01:59:19.662Z,11.35
2023-05-11T02:00:17.543Z,11.17
2023-05-11T02:01:17.540Z,10.86
2023-05-11T02:02:16.670Z,11.63
2023-05-11T02:03:16.639Z,11.54
2023-05-11T02:04:15.808Z,10.18
2023-05-11T02:05:18.517Z,11.23
2023-05-11T02:06:19.205Z,11.34
2023-05-11T02:07:19.111Z,11.70
2023-05-11T02:08:18.413Z,11.56
2023-05-11T02:09:18.966Z,11.54
2023-05-11T02:10:17.691Z,11.41
2023-05-11T02:11:16.286Z,11.08
2023-05-11T02:12:18.213Z,11.59
2023-05-11T02:13:19.024Z,11.38
2023-05-11T02:14:18.908Z,10.97
2023-05-11T02:15:17.304Z,11.02
2023-05-11T02:16:16.722Z,11.42
2023-05-11T02:17:20.861Z,10.86
2023-05-11T02:18:21.195Z,11.19
2023-05-11T02:19:19.347Z,10.64
2023-05-11T02:20:19.174Z,8.82
2023-05-11T02:21:17.456Z,10.89
2023-05-11T02:22:15.705Z,10.54
2023-05-11T02:23:13.828Z,11.48
2023-05-11T02:24:11.626Z,11.28
2023-05-11T02:25:09.808Z,11.40
2023-05-11T02:26:09.360Z,11.30
2023-05-11T02:27:06.351Z,11.02
2023-05-11T02:28:03.309Z,10.15
2023-05-11T02:29:00.753Z,11.25
2023-05-11T02:29:58.122Z,11.44
2023-05-11T02:31:00.525Z,10.92
2023-05-11T02:32:06.496Z,11.38
2023-05-11T02:33:09.083Z,11.07
2023-05-11T02:34:21.049Z,11.21
2023-05-11T02:35:24.037Z,10.54
2023-05-11T02:36:23.980Z,9.07
2023-05-11T02:37:25.670Z,11.49
2023-05-11T02:38:30.988Z,10.47
2023-05-11T02:39:35.169Z,10.39
2023-05-11T02:40:42.526Z,10.52
2023-05-11T02:41:44.630Z,11.44
2023-05-11T02:42:45.038Z,11.29
2023-05-11T02:43:47.607Z,10.65
2023-05-11T02:45:11.902Z,11.37
2023-05-11T02:46:14.646Z,11.26
2023-05-11T02:47:15.650Z,11.11
2023-05-11T02:48:22.776Z,10.68
2023-05-11T02:49:22.436Z,10.47
2023-05-11T02:50:24.516Z,10.63
2023-05-11T02:51:28.054Z,11.24
2023-05-11T02:52:28.628Z,11.51
2023-05-11T02:53:28.748Z,11.17
2023-05-11T02:54:28.824Z,10.57
2023-05-11T02:55:28.884Z,10.57
2023-05-11T02:56:26.370Z,11.41
2023-05-11T02:57:24.451Z,10.90
2023-05-11T02:58:21.541Z,11.08
2023-05-11T02:59:18.578Z,10.84
2023-05-11T03:00:17.123Z,11.31
2023-05-11T03:01:15.196Z,9.90
2023-05-11T03:02:12.860Z,11.41
2023-05-11T03:03:09.869Z,10.22
2023-05-11T03:04:06.866Z,10.91
2023-05-11T03:05:04.831Z,8.77
2023-05-11T03:06:01.589Z,11.20
2023-05-11T03:06:58.435Z,9.97
2023-05-11T03:07:59.051Z,11.04
2023-05-11T03:08:56.018Z,10.13
2023-05-11T03:09:53.460Z,10.44
2023-05-11T03:10:52.136Z,10.45
2023-05-11T03:11:50.675Z,11.00
2023-05-11T03:12:47.741Z,11.10
2023-05-11T03:13:46.072Z,10.68
2023-05-11T03:14:44.611Z,10.86
2023-05-11T03:15:43.110Z,10.70
2023-05-11T03:16:41.814Z,9.47
2023-05-11T03:17:41.051Z,10.78
2023-05-11T03:18:39.429Z,11.04
2023-05-11T03:19:39.254Z,10.03
2023-05-11T03:20:40.590Z,10.56
2023-05-11T03:21:39.770Z,10.03
2023-05-11T03:22:38.263Z,10.62
2023-05-11T03:23:36.922Z,11.05
2023-05-11T03:24:35.178Z,10.90
2023-05-11T03:25:33.676Z,10.70
2023-05-11T03:26:33.312Z,10.08
2023-05-11T03:27:31.966Z,9.77
2023-05-11T03:28:31.274Z,10.61
2023-05-11T03:29:29.952Z,10.80
2023-05-11T03:30:28.948Z,11.02
2023-05-11T03:31:26.112Z,10.17
2023-05-11T03:32:23.583Z,10.15
2023-05-11T03:33:23.517Z,8.92
2023-05-11T03:34:20.607Z,10.69
2023-05-11T03:35:17.642Z,10.06
2023-05-11T03:36:15.834Z,10.18
2023-05-11T03:37:14.922Z,11.18
2023-05-11T03:38:15.037Z,10.67
2023-05-11T03:39:13.246Z,10.25
2023-05-11T03:40:14.434Z,11.00
2023-05-11T03:41:17.125Z,10.39
2023-05-11T03:42:20.168Z,10.72
2023-05-11T03:43:21.033Z,10.09
2023-05-11T03:44:21.496Z,8.79
2023-05-11T03:45:21.947Z,11.03
2023-05-11T03:46:21.617Z,10.57
2023-05-11T03:47:21.018Z,10.68
2023-05-11T03:48:19.029Z,11.09
2023-05-11T03:49:17.749Z,10.20
2023-05-11T03:50:16.008Z,10.63
2023-05-11T03:51:14.100Z,10.74
2023-05-11T03:52:11.755Z,10.49
2023-05-11T03:53:08.908Z,11.04
2023-05-11T03:54:06.909Z,9.17
2023-05-11T03:55:04.455Z,10.17
2023-05-11T03:56:01.876Z,10.29
2023-05-11T03:56:58.761Z,10.35
2023-05-11T03:57:55.745Z,10.94
2023-05-11T03:58:53.487Z,10.46
2023-05-11T03:59:50.303Z,10.35
2023-05-11T04:00:47.684Z,11.07
2023-05-11T04:01:44.796Z,9.09
2023-05-11T04:02:41.687Z,9.76
2023-05-11T04:03:53.088Z,10.93
2023-05-11T04:04:52.401Z,10.30
2023-05-11T04:05:49.314Z,10.40
2023-05-11T04:06:46.275Z,9.86
2023-05-11T04:07:43.149Z,10.11
2023-05-11T04:08:39.870Z,10.79
2023-05-11T04:09:36.664Z,10.35
2023-05-11T04:10:33.670Z,10.92
2023-05-11T04:11:30.696Z,9.51
2023-05-11T04:12:27.461Z,11.07
2023-05-11T04:13:24.245Z,9.90
2023-05-11T04:14:21.133Z,10.98
2023-05-11T04:15:17.907Z,8.80
2023-05-11T04:16:14.746Z,11.18
2023-05-11T04:17:11.498Z,11.04
2023-05-11T04:18:08.514Z,10.29
2023-05-11T04:19:07.089Z,11.16
2023-05-11T04:20:04.274Z,10.61
2023-05-11T04:21:01.412Z,10.65
2023-05-11T04:21:58.112Z,10.04
2023-05-11T04:22:55.293Z,10.35
2023-05-11T04:23:52.007Z,10.80
2023-05-11T04:24:48.802Z,10.94
2023-05-11T04:25:45.657Z,10.90
2023-05-11T04:26:42.525Z,10.37
2023-05-11T04:27:39.372Z,10.89
2023-05-11T04:28:36.122Z,9.57
2023-05-11T04:29:32.919Z,10.63
2023-05-11T04:30:29.788Z,10.19
2023-05-11T04:31:26.664Z,11.14
2023-05-11T04:32:23.623Z,10.82
2023-05-11T04:33:21.004Z,10.67
2023-05-11T04:34:17.789Z,11.03
2023-05-11T04:35:14.564Z,10.97
2023-05-11T04:36:11.440Z,11.02
2023-05-11T04:37:08.323Z,10.08
2023-05-11T04:38:05.052Z,10.34
2023-05-11T04:39:02.286Z,10.05
2023-05-11T04:39:59.150Z,11.01
2023-05-11T04:40:55.879Z,10.38
2023-05-11T04:41:52.588Z,11.22
2023-05-11T04:42:49.421Z,10.34
2023-05-11T04:43:46.662Z,10.86
2023-05-11T04:44:43.439Z,10.08
2023-05-11T04:45:40.307Z,11.12
2023-05-11T04:46:38.670Z,10.99
2023-05-11T04:47:35.588Z,10.96
2023-05-11T04:48:36.022Z,10.71
2023-05-11T04:49:32.932Z,11.05
2023-05-11T04:50:29.726Z,11.14
2023-05-11T04:51:26.511Z,9.68
2023-05-11T04:52:23.312Z,10.15
2023-05-11T04:53:20.081Z,11.29
2023-05-11T04:54:17.068Z,10.16
2023-05-11T04:55:13.894Z,11.06
2023-05-11T04:56:10.893Z,9.99
2023-05-11T04:57:07.694Z,10.97
2023-05-11T04:58:04.417Z,10.90
2023-05-11T04:59:02.097Z,10.17
2023-05-11T05:00:00.544Z,8.84
2023-05-11T05:00:57.487Z,10.23
2023-05-11T05:01:54.326Z,10.85
2023-05-11T05:02:51.971Z,9.93
2023-05-11T05:03:49.762Z,10.87
2023-05-11T05:04:46.616Z,10.33
2023-05-11T05:05:43.363Z,9.42
2023-05-11T05:06:40.108Z,10.86
2023-05-11T05:07:36.857Z,9.59
2023-05-11T05:08:33.694Z,10.64
2023-05-11T05:09:30.450Z,10.98
2023-05-11T05:10:27.295Z,10.31
2023-05-11T05:11:24.323Z,10.46
2023-05-11T05:12:21.134Z,10.85
2023-05-11T05:13:18.071Z,10.85
2023-05-11T05:14:14.932Z,10.89
2023-05-11T05:15:12.298Z,10.28
2023-05-11T05:16:09.225Z,10.50
2023-05-11T05:17:06.359Z,11.07
2023-05-11T05:18:03.199Z,10.69
2023-05-11T05:19:00.291Z,11.00
2023-05-11T05:19:58.095Z,9.93
2023-05-11T05:20:54.887Z,10.73
2023-05-11T05:21:51.825Z,10.95
2023-05-11T05:22:48.666Z,10.25
2023-05-11T05:23:45.412Z,11.06
2023-05-11T05:24:42.192Z,10.39
2023-05-11T05:25:38.927Z,10.82
2023-05-11T05:26:35.846Z,11.03
2023-05-11T05:27:35.425Z,11.09
2023-05-11T05:28:32.261Z,10.96
2023-05-11T05:29:29.114Z,10.30
2023-05-11T05:30:26.026Z,11.17
2023-05-11T05:31:24.161Z,9.81
2023-05-11T05:32:21.210Z,11.24
2023-05-11T05:33:18.049Z,8.17
2023-05-11T05:34:16.459Z,10.33
2023-05-11T05:35:13.529Z,10.18
2023-05-11T05:36:10.293Z,11.35
2023-05-11T05:37:07.113Z,11.10
2023-05-11T05:38:03.947Z,10.62
2023-05-11T05:39:00.918Z,10.77
2023-05-11T05:39:57.855Z,11.13
2023-05-11T05:40:54.750Z,11.08
2023-05-11T05:41:52.055Z,11.17
2023-05-11T05:42:48.849Z,10.28
2023-05-11T05:43:45.675Z,10.95
2023-05-11T05:44:42.459Z,10.53
2023-05-11T05:45:39.314Z,11.50
2023-05-11T05:46:36.376Z,10.90
2023-05-11T05:47:33.254Z,10.53
2023-05-11T05:48:30.191Z,10.53
2023-05-11T05:49:26.923Z,10.57
2023-05-11T05:50:23.679Z,11.08
2023-05-11T05:51:20.684Z,11.27
2023-05-11T05:52:17.514Z,11.42
2023-05-11T05:53:16.724Z,11.08
2023-05-11T05:54:13.795Z,11.49
2023-05-11T05:55:10.750Z,10.52
2023-05-11T05:56:07.659Z,10.59
2023-05-11T05:57:04.519Z,11.31
2023-05-11T05:58:01.263Z,11.18
2023-05-11T05:58:58.123Z,10.94
2023-05-11T05:59:54.968Z,10.06
2023-05-11T06:00:52.647Z,10.14
2023-05-11T06:01:50.962Z,11.39
2023-05-11T06:02:48.046Z,10.57
2023-05-11T06:03:45.593Z,11.27
2023-05-11T06:04:42.672Z,10.91
2023-05-11T06:05:39.570Z,10.83
2023-05-11T06:06:36.261Z,11.08
2023-05-11T06:07:33.384Z,11.37
2023-05-11T06:08:30.197Z,10.89
2023-05-11T06:09:27.121Z,10.70
2023-05-11T06:10:23.955Z,11.26
2023-05-11T06:11:21.792Z,11.47
2023-05-11T06:12:18.669Z,11.12
2023-05-11T06:13:15.625Z,11.42
2023-05-11T06:14:12.493Z,11.45
2023-05-11T06:15:09.469Z,11.52
2023-05-11T06:16:08.930Z,10.05
2023-05-11T06:17:05.734Z,11.28
2023-05-11T06:18:02.609Z,11.13
2023-05-11T06:18:59.467Z,10.81
2023-05-11T06:19:56.333Z,11.04
2023-05-11T06:20:53.223Z,11.08
2023-05-11T06:21:49.959Z,11.36
2023-05-11T06:22:46.764Z,10.86
2023-05-11T06:23:43.644Z,11.37
2023-05-11T06:24:40.531Z,10.33
2023-05-11T06:25:37.431Z,11.51
2023-05-11T06:26:34.264Z,10.63
2023-05-11T06:27:31.358Z,11.62
2023-05-11T06:28:29.668Z,10.80
2023-05-11T06:29:26.543Z,11.39
2023-05-11T06:30:23.450Z,10.88
2023-05-11T06:31:20.386Z,10.23
2023-05-11T06:32:17.336Z,10.99
2023-05-11T06:33:14.149Z,11.21
2023-05-11T06:34:11.165Z,11.16
2023-05-11T06:35:08.284Z,9.87
2023-05-11T06:36:06.602Z,10.97
2023-05-11T06:37:03.393Z,11.61
2023-05-11T06:38:00.305Z,11.69
2023-05-11T06:38:57.103Z,11.58
2023-05-11T06:39:53.866Z,10.98
2023-05-11T06:40:53.815Z,10.14
2023-05-11T06:41:54.416Z,11.47
2023-05-11T06:42:51.967Z,11.35
2023-05-11T06:43:48.703Z,10.51
2023-05-11T06:44:45.983Z,10.18
2023-05-11T06:45:45.119Z,10.28
2023-05-11T06:46:41.902Z,10.53
2023-05-11T06:47:38.838Z,10.83
2023-05-11T06:48:35.659Z,10.17
2023-05-11T06:49:32.501Z,10.02
2023-05-11T06:50:29.917Z,9.18
2023-05-11T06:51:26.934Z,10.06
2023-05-11T06:52:23.620Z,10.44
2023-05-11T06:53:20.510Z,11.11
2023-05-11T06:54:17.350Z,11.07
2023-05-11T06:55:14.452Z,10.89
2023-05-11T06:56:11.630Z,10.74
2023-05-11T06:57:08.465Z,9.08
2023-05-11T06:58:05.317Z,11.17
2023-05-11T06:59:02.048Z,10.53
2023-05-11T06:59:58.836Z,11.01
2023-05-11T07:00:55.816Z,11.45
2023-05-11T07:01:52.653Z,11.21
2023-05-11T07:02:49.543Z,11.71
2023-05-11T07:03:49.016Z,10.55
2023-05-11T07:04:45.971Z,10.42
2023-05-11T07:05:43.118Z,10.38
2023-05-11T07:06:39.944Z,9.85
2023-05-11T07:07:36.886Z,10.92
2023-05-11T07:08:33.986Z,11.25
2023-05-11T07:09:30.781Z,10.95
2023-05-11T07:10:27.576Z,11.92
2023-05-11T07:11:25.541Z,12.14
2023-05-11T07:12:22.983Z,11.85
2023-05-11T07:13:19.726Z,12.28
2023-05-11T07:14:16.587Z,11.16
2023-05-11T07:15:13.323Z,11.94
2023-05-11T07:16:10.046Z,10.87
2023-05-11T07:17:06.879Z,11.41
2023-05-11T07:18:03.901Z,12.17
2023-05-11T07:19:00.727Z,12.39
2023-05-11T07:19:57.520Z,10.97
2023-05-11T07:20:54.224Z,11.19
2023-05-11T07:21:52.302Z,11.68
2023-05-11T07:22:49.036Z,10.53
2023-05-11T07:23:45.942Z,11.58
2023-05-11T07:24:42.961Z,10.94
2023-05-11T07:25:40.021Z,11.91
2023-05-11T07:26:36.791Z,11.54
2023-05-11T07:27:34.867Z,11.11
2023-05-11T07:28:50.098Z,12.22
2023-05-11T07:29:46.883Z,9.72
2023-05-11T07:30:43.652Z,12.69
2023-05-11T07:31:40.419Z,10.45
2023-05-11T07:32:37.297Z,12.06
2023-05-11T07:33:34.783Z,11.83
2023-05-11T07:34:31.624Z,12.51
2023-05-11T07:35:29.881Z,10.56
2023-05-11T07:36:26.669Z,12.26
2023-05-11T07:37:23.500Z,12.67
2023-05-11T07:38:20.303Z,12.44
2023-05-11T07:39:17.264Z,12.87
2023-05-11T07:40:14.067Z,12.20
2023-05-11T07:41:12.628Z,12.32
2023-05-11T07:42:09.782Z,13.13
2023-05-11T07:43:06.712Z,11.72
2023-05-11T07:44:03.455Z,12.74
2023-05-11T07:45:00.300Z,12.43
2023-05-11T07:45:57.176Z,11.92
2023-05-11T07:46:55.084Z,11.45
2023-05-11T07:47:51.964Z,11.62
2023-05-11T07:48:50.448Z,12.11
2023-05-11T07:49:50.456Z,12.30
2023-05-11T07:50:47.491Z,11.31
2023-05-11T07:51:44.834Z,10.92
2023-05-11T07:52:41.780Z,10.88
2023-05-11T07:53:38.953Z,12.27
2023-05-11T07:54:35.811Z,12.68
2023-05-11T07:55:33.360Z,11.81
2023-05-11T07:56:30.086Z,11.83
2023-05-11T07:57:27.299Z,12.42
2023-05-11T07:58:24.099Z,12.07
2023-05-11T07:59:21.005Z,12.67
2023-05-11T08:00:19.548Z,12.07
2023-05-11T08:01:16.778Z,12.78
2023-05-11T08:02:14.134Z,12.93
2023-05-11T08:03:11.020Z,13.18
2023-05-11T08:04:08.025Z,13.28
2023-05-11T08:05:05.069Z,11.99
2023-05-11T08:06:01.854Z,13.21
2023-05-11T08:06:58.862Z,12.25
2023-05-11T08:07:55.631Z,13.48
2023-05-11T08:08:52.423Z,13.17
2023-05-11T08:09:49.141Z,13.40
2023-05-11T08:10:46.036Z,13.52
2023-05-11T08:11:42.920Z,13.78
2023-05-11T08:12:39.800Z,12.73
2023-05-11T08:13:36.654Z,13.40
2023-05-11T08:14:33.512Z,13.70
2023-05-11T08:15:30.476Z,13.82
2023-05-11T08:16:27.354Z,14.07
2023-05-11T08:17:24.229Z,13.23
2023-05-11T08:18:21.097Z,13.43
2023-05-11T08:19:17.959Z,12.72
2023-05-11T08:20:14.775Z,12.48
2023-05-11T08:21:11.558Z,13.26
2023-05-11T08:22:08.395Z,13.98
2023-05-11T08:23:05.524Z,14.17
2023-05-11T08:24:02.269Z,14.29
2023-05-11T08:24:59.080Z,12.35
2023-05-11T08:25:56.441Z,12.87
2023-05-11T08:26:53.785Z,14.35
2023-05-11T08:27:50.579Z,13.78
2023-05-11T08:28:47.402Z,14.33
2023-05-11T08:29:44.272Z,14.25
2023-05-11T08:30:41.048Z,12.96
2023-05-11T08:31:38.748Z,13.77
2023-05-11T08:32:46.567Z,14.25
2023-05-11T08:33:51.207Z,14.02
2023-05-11T08:34:48.095Z,13.50
2023-05-11T08:35:45.204Z,12.42
2023-05-11T08:36:41.988Z,12.96
2023-05-11T08:37:38.985Z,13.31
2023-05-11T08:38:36.484Z,13.84
2023-05-11T08:39:46.766Z,13.91
2023-05-11T08:40:48.099Z,13.91
2023-05-11T08:41:46.582Z,12.84
2023-05-11T08:42:47.071Z,14.31
2023-05-11T08:43:46.446Z,13.61
2023-05-11T08:44:44.648Z,13.80
2023-05-11T08:45:44.352Z,13.23
2023-05-11T08:46:45.873Z,13.17
2023-05-11T08:47:42.791Z,14.08
2023-05-11T08:48:40.512Z,13.31
2023-05-11T08:49:37.454Z,13.86
2023-05-11T08:50:34.262Z,14.12
2023-05-11T08:51:31.235Z,13.07
2023-05-11T08:52:28.191Z,11.77
2023-05-11T08:53:25.015Z,12.75
2023-05-11T08:54:22.002Z,12.95
2023-05-11T08:55:19.697Z,12.40
2023-05-11T08:56:17.375Z,13.29
2023-05-11T08:57:15.316Z,12.54
2023-05-11T08:58:15.465Z,13.26
2023-05-11T08:59:14.102Z,13.05
2023-05-11T09:00:12.128Z,13.49
2023-05-11T09:01:12.350Z,13.43
2023-05-11T09:02:15.941Z,12.84
2023-05-11T09:03:13.388Z,13.65
2023-05-11T09:04:10.835Z,13.38
2023-05-11T09:05:09.892Z,13.16
2023-05-11T09:06:08.020Z,13.37
2023-05-11T09:07:05.284Z,13.73
2023-05-11T09:08:06.149Z,14.11
2023-05-11T09:09:03.746Z,12.86
2023-05-11T09:10:01.508Z,12.37
2023-05-11T09:10:59.809Z,12.60
2023-05-11T09:11:57.108Z,12.91
2023-05-11T09:12:53.850Z,12.69
2023-05-11T09:13:51.538Z,12.38
2023-05-11T09:14:48.589Z,12.57
2023-05-11T09:15:45.373Z,12.69
2023-05-11T09:16:42.338Z,12.73
2023-05-11T09:17:39.324Z,13.57
2023-05-11T09:18:36.211Z,12.84
2023-05-11T09:19:32.956Z,12.31
2023-05-11T09:20:32.309Z,14.44
2023-05-11T09:21:30.540Z,13.25
2023-05-11T09:22:30.799Z,13.42
2023-05-11T09:23:28.293Z,14.61
2023-05-11T09:24:25.246Z,14.57
2023-05-11T09:25:23.568Z,13.74
2023-05-11T09:26:21.825Z,13.52
2023-05-11T09:27:21.297Z,14.74
2023-05-11T09:28:26.042Z,13.85
2023-05-11T09:29:22.973Z,13.84
2023-05-11T09:30:23.301Z,13.31
2023-05-11T09:31:39.727Z,14.51
2023-05-11T09:33:00.005Z,14.53
2023-05-11T09:34:16.983Z,14.25
2023-05-11T09:35:31.513Z,13.92
2023-05-11T09:36:29.763Z,13.26
2023-05-11T09:37:26.541Z,12.77
2023-05-11T09:38:25.338Z,14.42
2023-05-11T09:39:42.230Z,14.26
2023-05-11T09:40:55.608Z,14.40
2023-05-11T09:41:52.661Z,14.63
2023-05-11T09:42:49.736Z,14.24
2023-05-11T09:43:50.237Z,13.91
2023-05-11T09:44:48.358Z,13.60
2023-05-11T09:45:47.265Z,14.58
2023-05-11T09:46:45.897Z,14.68
2023-05-11T09:47:42.772Z,14.25
2023-05-11T09:48:39.658Z,13.87
2023-05-11T09:49:36.518Z,13.60
2023-05-11T09:50:34.466Z,14.44
2023-05-11T09:51:34.003Z,14.64
2023-05-11T09:52:33.476Z,14.13
2023-05-11T09:53:35.975Z,14.57
2023-05-11T09:54:42.804Z,13.88
2023-05-11T09:55:39.715Z,14.32
2023-05-11T09:56:46.467Z,13.90
2023-05-11T09:57:43.218Z,14.24
2023-05-11T09:58:54.980Z,14.39
2023-05-11T09:59:52.889Z,14.15
2023-05-11T10:00:56.508Z,14.94
2023-05-11T10:01:53.363Z,14.74
2023-05-11T10:03:20.371Z,15.04
2023-05-11T10:04:23.677Z,14.41
2023-05-11T10:05:20.940Z,14.22
2023-05-11T10:06:20.099Z,14.29
2023-05-11T10:07:24.440Z,14.35
2023-05-11T10:08:29.387Z,13.51
2023-05-11T10:09:27.469Z,14.56
2023-05-11T10:10:24.962Z,14.05
2023-05-11T10:11:25.426Z,14.13
2023-05-11T10:12:25.657Z,14.55
2023-05-11T10:13:24.120Z,14.79
2023-05-11T10:14:22.754Z,14.41
2023-05-11T10:15:25.299Z,13.93
2023-05-11T10:16:22.990Z,13.03
2023-05-11T10:17:21.603Z,13.27
2023-05-11T10:18:20.236Z,14.08
2023-05-11T10:19:18.287Z,13.47
2023-05-11T10:20:15.761Z,13.56
2023-05-11T10:21:15.675Z,14.32
2023-05-11T10:22:12.889Z,14.40
2023-05-11T10:23:11.358Z,14.35
2023-05-11T10:24:08.716Z,13.44
2023-05-11T10:25:08.106Z,12.58
2023-05-11T10:26:06.207Z,13.55
2023-05-11T10:27:03.975Z,13.96
2023-05-11T10:28:01.118Z,14.18
2023-05-11T10:29:00.561Z,14.66
2023-05-11T10:29:59.058Z,13.51
2023-05-11T10:30:57.535Z,13.97
2023-05-11T10:31:57.813Z,14.00
2023-05-11T10:32:55.750Z,12.92
2023-05-11T10:33:53.388Z,13.57
2023-05-11T10:34:50.701Z,13.53
2023-05-11T10:35:49.222Z,13.28
2023-05-11T10:36:46.856Z,14.20
2023-05-11T10:37:43.956Z,14.72
2023-05-11T10:38:40.848Z,13.57
2023-05-11T10:39:39.388Z,15.06
2023-05-11T10:40:43.954Z,13.34
2023-05-11T10:41:40.778Z,13.72
2023-05-11T10:43:04.581Z,14.50
2023-05-11T10:44:21.914Z,14.21
2023-05-11T10:45:37.242Z,14.89
2023-05-11T10:46:59.850Z,15.17
2023-05-11T10:48:16.098Z,14.98
2023-05-11T10:49:41.829Z,14.42
2023-05-11T10:51:05.555Z,15.04
2023-05-11T10:52:36.235Z,14.50
2023-05-11T10:54:11.355Z,15.13
2023-05-11T10:55:28.328Z,14.64
2023-05-11T10:56:55.544Z,14.78
2023-05-11T10:58:04.155Z,14.55
2023-05-11T10:59:31.906Z,14.32
2023-05-11T11:00:59.568Z,14.48
2023-05-11T11:02:00.273Z,13.69
2023-05-11T11:03:10.963Z,14.44
2023-05-11T11:04:10.461Z,13.72
2023-05-11T11:05:09.122Z,13.61
2023-05-11T11:06:06.407Z,13.74
2023-05-11T11:07:07.103Z,13.82
2023-05-11T11:08:04.179Z,15.07
2023-05-11T11:09:08.155Z,15.45
2023-05-11T11:10:07.163Z,15.53
2023-05-11T11:11:29.774Z,15.25
2023-05-11T11:12:29.646Z,15.09
2023-05-11T11:13:26.626Z,14.68
2023-05-11T11:14:26.329Z,15.41
2023-05-11T11:15:23.892Z,15.43
2023-05-11T11:16:23.593Z,14.73
2023-05-11T11:17:20.358Z,15.81
2023-05-11T11:18:25.804Z,15.85
2023-05-11T11:19:42.795Z,15.64
2023-05-11T11:20:53.561Z,15.57
2023-05-11T11:21:50.386Z,14.84
2023-05-11T11:22:47.704Z,14.52
2023-05-11T11:23:49.943Z,13.83
2023-05-11T11:24:47.219Z,13.29
2023-05-11T11:25:54.438Z,13.86
2023-05-11T11:26:51.973Z,13.23
2023-05-11T11:27:52.455Z,15.32
2023-05-11T11:28:54.685Z,15.44
2023-05-11T11:30:21.250Z,15.27
2023-05-11T11:31:30.070Z,14.65
2023-05-11T11:32:27.890Z,14.59
2023-05-11T11:33:24.624Z,14.98
2023-05-11T11:34:27.627Z,15.17
2023-05-11T11:35:39.793Z,15.03
2023-05-11T11:36:54.889Z,15.29
2023-05-11T11:38:02.586Z,14.79
2023-05-11T11:39:00.366Z,15.27
2023-05-11T11:40:13.198Z,14.66
2023-05-11T11:41:11.854Z,14.91
2023-05-11T11:42:12.666Z,15.14
2023-05-11T11:43:19.705Z,15.11
2023-05-11T11:44:22.834Z,14.65
2023-05-11T11:45:32.377Z,14.81
2023-05-11T11:46:30.174Z,14.84
2023-05-11T11:47:27.112Z,15.79
2023-05-11T11:48:37.982Z,16.02
2023-05-11T11:49:37.185Z,15.59
2023-05-11T11:50:34.370Z,15.93
2023-05-11T11:51:34.375Z,16.16
2023-05-11T11:52:34.616Z,15.16
2023-05-11T11:53:37.642Z,15.17
2023-05-11T11:54:39.784Z,14.62
2023-05-11T11:55:48.072Z,15.65
2023-05-11T11:56:45.778Z,16.13
2023-05-11T11:57:46.642Z,15.58
2023-05-11T11:58:43.477Z,15.67
2023-05-11T11:59:49.266Z,15.48
2023-05-11T12:00:48.183Z,13.11
2023-05-11T12:01:46.009Z,15.84
2023-05-11T12:02:44.927Z,15.74
2023-05-11T12:03:47.156Z,14.90
2023-05-11T12:04:56.294Z,14.44
2023-05-11T12:06:01.846Z,14.54
2023-05-11T12:06:59.439Z,13.74
2023-05-11T12:08:06.543Z,13.28
2023-05-11T12:09:05.025Z,14.51
2023-05-11T12:10:05.386Z,13.47
2023-05-11T12:11:04.130Z,13.91
2023-05-11T12:12:02.443Z,12.23
2023-05-11T12:13:00.189Z,13.01
2023-05-11T12:13:58.257Z,14.28
2023-05-11T12:14:55.134Z,14.13
2023-05-11T12:16:09.270Z,14.34
2023-05-11T12:17:13.388Z,14.88
2023-05-11T12:18:21.453Z,14.70
2023-05-11T12:19:24.500Z,13.87
2023-05-11T12:20:22.969Z,14.15
2023-05-11T12:21:28.279Z,14.50
2023-05-11T12:22:26.504Z,14.38
2023-05-11T12:23:23.253Z,14.59
2023-05-11T12:24:19.984Z,15.21
2023-05-11T12:25:18.648Z,14.18
2023-05-11T12:26:21.940Z,13.49
2023-05-11T12:27:19.773Z,12.11
2023-05-11T12:28:19.793Z,13.81
2023-05-11T12:29:16.570Z,13.36
2023-05-11T12:30:20.911Z,14.35
2023-05-11T12:31:18.724Z,13.79
2023-05-11T12:32:15.711Z,14.63
2023-05-11T12:33:15.253Z,14.84
2023-05-11T12:34:20.610Z,14.74
2023-05-11T12:35:24.361Z,13.50
2023-05-11T12:36:21.132Z,13.24
2023-05-11T12:37:18.098Z,13.04
2023-05-11T12:38:15.224Z,14.52
2023-05-11T12:39:26.779Z,13.35
2023-05-11T12:40:24.426Z,14.48
2023-05-11T12:41:22.858Z,14.41
2023-05-11T12:42:19.722Z,15.13
2023-05-11T12:43:23.110Z,15.12
2023-05-11T12:44:22.717Z,15.32
2023-05-11T12:45:21.196Z,15.10
2023-05-11T12:46:19.136Z,14.58
2023-05-11T12:47:16.458Z,14.17
2023-05-11T12:48:14.904Z,14.08
2023-05-11T12:49:14.042Z,12.67
2023-05-11T12:50:11.177Z,14.10
2023-05-11T12:51:07.964Z,13.79
2023-05-11T12:52:08.421Z,12.69